createdAt,value
2023-02-09T00:02:10.700Z,99764.09
2023-02-09T00:09:28.614Z,99756.88
2023-02-09T00:12:56.421Z,99750.78
2023-02-09T00:16:17.798Z,99759.16
2023-02-09T00:19:50.612Z,99750.94
2023-02-09T00:23:07.472Z,99752.91
2023-02-09T00:26:41.587Z,99744.28
2023-02-09T00:29:58.930Z,99742.66
2023-02-09T00:33:09.087Z,99747.97
2023-02-09T00:36:23.629Z,99750.13
2023-02-09T00:39:43.076Z,99748.78
2023-02-09T00:43:11.086Z,99738.84
2023-02-09T00:46:55.062Z,99733.94
2023-02-09T00:50:10.149Z,99735.75
2023-02-09T00:53:25.313Z,99731.75
2023-02-09T00:56:54.554Z,99735.31
2023-02-09T01:00:24.731Z,99731.75
2023-02-09T01:03:45.986Z,99732.03
2023-02-09T01:06:56.978Z,99729.88
2023-02-09T01:10:32.443Z,99730.59
2023-02-09T01:14:14.621Z,99723.03
2023-02-09T01:17:34.877Z,99726.25
2023-02-09T01:21:07.376Z,99725.75
2023-02-09T01:24:52.440Z,99720.84
2023-02-09T01:28:32.282Z,99713.81
2023-02-09T01:31:58.505Z,99708.13
2023-02-09T01:35:13.915Z,99713.78
2023-02-09T01:38:43.556Z,99708.09
2023-02-09T01:42:01.191Z,99702.00
2023-02-09T01:45:40.871Z,99701.59
2023-02-09T01:49:02.429Z,99699.56
2023-02-09T01:52:53.150Z,99700.25
2023-02-09T02:03:48.904Z,99695.28
2023-02-09T02:11:12.853Z,99695.78
2023-02-09T02:14:49.717Z,99689.25
2023-02-09T02:18:32.710Z,99695.66
2023-02-09T02:22:39.658Z,99695.59
2023-02-09T02:26:42.001Z,99701.72
2023-02-09T02:30:55.164Z,99689.34
2023-02-09T02:34:31.924Z,99691.81
2023-02-09T02:38:13.727Z,99703.47
2023-02-09T02:45:08.271Z,99689.00
2023-02-09T02:52:26.781Z,99696.47
2023-02-09T02:56:06.923Z,99702.28
2023-02-09T02:59:30.632Z,99695.22
2023-02-09T03:03:15.076Z,99689.38
2023-02-09T03:10:03.331Z,99678.75
2023-02-09T03:13:43.264Z,99689.50
2023-02-09T03:17:06.194Z,99693.13
2023-02-09T03:20:22.103Z,99694.91
2023-02-09T03:23:42.400Z,99700.06
2023-02-09T03:27:29.968Z,99690.94
2023-02-09T03:30:58.035Z,99703.81
2023-02-09T03:34:23.464Z,99697.00
2023-02-09T03:37:33.887Z,99692.25
2023-02-09T03:41:00.963Z,99690.72
2023-02-09T03:44:32.223Z,99688.94
2023-02-09T03:48:11.578Z,99683.38
2023-02-09T03:51:29.684Z,99681.75
2023-02-09T03:54:51.642Z,99690.34
2023-02-09T03:58:23.716Z,99685.47
2023-02-09T04:01:56.787Z,99692.47
2023-02-09T04:05:23.850Z,99685.69
2023-02-09T04:09:15.828Z,99697.59
2023-02-09T04:12:34.438Z,99702.31
2023-02-09T04:15:59.671Z,99701.44
2023-02-09T04:22:59.482Z,99704.00
2023-02-09T04:29:34.075Z,99700.72
2023-02-09T04:32:41.819Z,99707.47
2023-02-09T04:35:51.896Z,99720.00
2023-02-09T04:39:00.016Z,99720.53
2023-02-09T04:42:08.312Z,99716.50
2023-02-09T04:45:15.308Z,99714.16
2023-02-09T04:48:29.398Z,99718.63
2023-02-09T04:51:41.700Z,99712.84
2023-02-09T04:54:50.581Z,99700.09
2023-02-09T04:58:16.244Z,99703.56
2023-02-09T05:01:28.050Z,99697.09
2023-02-09T05:04:35.560Z,99694.00
2023-02-09T05:07:49.979Z,99693.72
2023-02-09T05:11:01.468Z,99690.09
2023-02-09T05:14:08.317Z,99689.94
2023-02-09T05:17:16.044Z,99687.78
2023-02-09T05:20:32.654Z,99694.41
2023-02-09T05:23:41.213Z,99676.16
2023-02-09T05:26:49.511Z,99686.41
2023-02-09T05:29:58.670Z,99676.84
2023-02-09T05:33:34.206Z,99686.88
2023-02-09T05:36:54.780Z,99683.06
2023-02-09T05:40:42.148Z,99686.19
2023-02-09T05:44:01.814Z,99679.47
2023-02-09T05:47:44.976Z,99674.22
2023-02-09T05:51:12.402Z,99680.53
2023-02-09T05:54:56.637Z,99686.28
2023-02-09T05:58:09.499Z,99680.53
2023-02-09T06:01:53.264Z,99675.50
2023-02-09T06:05:11.933Z,99673.16
2023-02-09T06:09:04.094Z,99687.41
2023-02-09T06:12:46.846Z,99691.16
2023-02-09T06:16:36.572Z,99694.75
2023-02-09T06:20:30.273Z,99695.47
2023-02-09T06:23:45.844Z,99698.63
2023-02-09T06:39:28.537Z,99729.13
2023-02-09T06:43:45.319Z,99728.63
2023-02-09T06:57:04.928Z,99746.72
2023-02-09T07:40:35.949Z,99764.03
2023-02-09T07:44:19.209Z,99762.31
2023-02-09T08:18:31.969Z,99765.75
2023-02-09T08:21:49.642Z,99774.06
2023-02-09T08:25:14.981Z,99772.47
2023-02-09T08:28:42.718Z,99766.41
2023-02-09T08:32:04.837Z,99755.94
2023-02-09T08:35:32.873Z,99756.28
2023-02-09T08:46:41.166Z,99760.22
2023-02-09T08:50:10.994Z,99765.84
2023-02-09T08:53:30.325Z,99763.69
2023-02-09T08:56:59.737Z,99765.78
2023-02-09T09:00:39.361Z,99767.59
2023-02-09T09:04:21.910Z,99764.25
2023-02-09T09:07:40.586Z,99763.13
2023-02-09T09:14:27.510Z,99766.53
2023-02-09T09:17:36.357Z,99761.22
2023-02-09T09:21:08.203Z,99768.97
2023-02-09T09:24:24.074Z,99774.38
2023-02-09T09:28:00.045Z,99771.66
2023-02-09T09:31:21.792Z,99771.66
2023-02-09T09:34:36.454Z,99780.00
2023-02-09T09:38:24.139Z,99774.16
2023-02-09T09:41:51.995Z,99772.75
2023-02-09T09:45:16.008Z,99776.72
2023-02-09T09:48:46.062Z,99778.94
2023-02-09T09:59:51.994Z,99761.81
2023-02-09T10:06:48.623Z,99769.66
2023-02-09T10:10:24.719Z,99762.94
2023-02-09T10:14:48.622Z,99768.72
2023-02-09T10:18:14.658Z,99756.72
2023-02-09T10:25:04.450Z,99762.13
2023-02-09T10:41:07.844Z,99742.50
2023-02-09T16:31:47.492Z,99775.56
2023-02-09T16:35:17.582Z,99776.53
2023-02-09T16:38:34.146Z,99777.69
2023-02-09T16:41:55.364Z,99780.03
2023-02-09T16:45:22.784Z,99779.50
2023-02-09T16:48:52.439Z,99784.16
2023-02-09T16:52:02.530Z,99791.59
2023-02-09T16:55:24.432Z,99798.78
2023-02-09T16:58:37.301Z,99802.97
2023-02-09T17:01:50.220Z,99803.31
2023-02-09T17:05:00.546Z,99803.91
2023-02-09T17:08:27.742Z,99809.38
2023-02-09T17:11:45.196Z,99816.03
2023-02-09T17:14:53.029Z,99822.19
2023-02-09T17:18:02.175Z,99828.44
2023-02-09T17:21:08.736Z,99829.59
2023-02-09T17:24:17.013Z,99827.13
2023-02-09T17:27:19.838Z,99825.06
2023-02-09T17:30:22.556Z,99827.38
2023-02-09T17:33:27.460Z,99834.47
2023-02-09T17:36:32.011Z,99833.88
2023-02-09T17:39:34.917Z,99826.47
2023-02-09T17:42:38.656Z,99829.03
2023-02-09T17:45:47.666Z,99834.97
2023-02-09T17:48:50.570Z,99836.09
2023-02-09T17:51:54.646Z,99828.75
2023-02-09T17:54:57.426Z,99838.81
2023-02-09T17:58:01.265Z,99830.78
2023-02-09T18:01:20.185Z,99838.41
2023-02-09T18:04:26.678Z,99835.97
2023-02-09T18:07:31.122Z,99840.97
2023-02-09T18:10:33.995Z,99848.75
2023-02-09T18:13:36.645Z,99849.25
2023-02-09T18:16:39.297Z,99848.34
2023-02-09T18:19:42.048Z,99854.56
2023-02-09T18:22:46.139Z,99852.78
2023-02-09T18:25:50.907Z,99861.34
2023-02-09T18:28:53.571Z,99857.94
2023-02-09T18:31:56.635Z,99871.97
2023-02-09T18:34:59.264Z,99876.88
2023-02-09T18:38:06.102Z,99879.88
2023-02-09T18:41:11.249Z,99883.53
2023-02-09T18:44:14.132Z,99876.97
2023-02-09T18:47:17.212Z,99892.97
2023-02-09T18:50:21.631Z,99897.72
2023-02-09T18:53:25.714Z,99887.22
2023-02-09T18:56:28.472Z,99891.00
2023-02-09T18:59:32.381Z,99894.28
2023-02-09T19:02:35.253Z,99894.78
2023-02-09T19:05:38.078Z,99907.19
2023-02-09T19:08:42.276Z,99902.88
2023-02-09T19:11:45.336Z,99911.63
2023-02-09T19:14:48.408Z,99916.91
2023-02-09T19:17:51.440Z,99914.94
2023-02-09T19:20:55.588Z,99919.91
2023-02-09T19:23:59.692Z,99929.28
2023-02-09T19:27:03.570Z,99925.66
2023-02-09T19:30:06.875Z,99928.78
2023-02-09T19:33:09.520Z,99919.91
2023-02-09T19:36:12.299Z,99924.81
2023-02-09T19:39:17.334Z,99930.59
2023-02-09T19:42:20.948Z,99934.69
2023-02-09T19:45:24.086Z,99928.78
2023-02-09T19:48:26.837Z,99923.00
2023-02-09T19:51:29.538Z,99927.13
2023-02-09T19:54:35.030Z,99927.47
2023-02-09T19:57:37.715Z,99931.72
2023-02-09T20:00:40.359Z,99930.28
2023-02-09T20:03:43.649Z,99933.56
2023-02-09T20:06:46.355Z,99932.25
2023-02-09T20:09:52.299Z,99938.97
2023-02-09T20:12:57.090Z,99932.88
2023-02-09T20:15:59.775Z,99923.47
2023-02-09T20:19:02.456Z,99932.00
2023-02-09T20:22:05.189Z,99938.31
2023-02-09T20:25:10.598Z,99929.88
2023-02-09T20:28:13.622Z,99932.69
2023-02-09T20:31:19.635Z,99939.13
2023-02-09T20:34:22.652Z,99942.56
2023-02-09T20:37:25.773Z,99926.44
2023-02-09T20:40:30.803Z,99927.75
2023-02-09T20:43:50.983Z,99935.28
2023-02-09T20:46:59.629Z,99948.81
2023-02-09T20:50:02.389Z,99956.06
2023-02-09T20:53:05.116Z,99960.84
2023-02-09T20:56:09.602Z,99967.78
2023-02-09T20:59:13.498Z,99973.25
2023-02-09T21:02:16.259Z,99973.53
2023-02-09T21:05:19.014Z,99976.31
2023-02-09T21:08:22.818Z,99973.38
2023-02-09T21:11:27.014Z,99971.84
2023-02-09T21:14:41.848Z,99972.66
2023-02-09T21:17:48.436Z,99971.00
2023-02-09T21:20:51.492Z,99974.59
2023-02-09T21:23:54.790Z,99980.47
2023-02-09T21:27:00.610Z,99979.66
2023-02-09T21:30:03.897Z,99991.19
2023-02-09T21:33:06.556Z,99976.88
2023-02-09T21:36:10.132Z,99975.06
2023-02-09T21:39:13.122Z,99990.84
2023-02-09T21:42:31.183Z,99995.78
2023-02-09T21:45:33.978Z,99998.88
2023-02-09T21:48:36.722Z,99995.06
2023-02-09T21:51:39.641Z,99995.03
2023-02-09T21:54:42.293Z,99992.28
2023-02-09T21:57:46.275Z,99994.09
2023-02-09T22:00:57.512Z,100003.84
2023-02-09T22:04:00.611Z,100013.22
2023-02-09T22:07:03.281Z,100015.00
2023-02-09T22:10:06.744Z,100016.34
2023-02-09T22:13:10.736Z,100016.97
2023-02-09T22:16:19.693Z,100019.25
2023-02-09T22:19:22.568Z,100021.72
2023-02-09T22:22:25.287Z,100037.25
2023-02-09T22:25:28.973Z,100026.66
2023-02-09T22:28:36.005Z,100031.13
2023-02-09T22:31:39.024Z,100033.81
2023-02-09T22:34:41.754Z,100030.19
2023-02-09T22:37:44.453Z,100031.88
2023-02-09T22:40:47.123Z,100034.34
2023-02-09T22:43:53.104Z,100037.06
2023-02-09T22:46:56.131Z,100035.91
2023-02-09T22:49:58.848Z,100036.69
2023-02-09T22:53:01.548Z,100043.81
2023-02-09T22:56:04.796Z,100045.25
2023-02-09T22:59:09.372Z,100052.81
2023-02-09T23:02:12.706Z,100044.59
2023-02-09T23:05:15.436Z,100056.97
2023-02-09T23:08:18.423Z,100049.59
2023-02-09T23:11:21.366Z,100049.69
2023-02-09T23:14:25.452Z,100054.34
2023-02-09T23:20:32.156Z,100060.06
2023-02-09T23:23:35.417Z,100065.66
2023-02-09T23:26:39.658Z,100067.53
2023-02-09T23:29:43.884Z,100061.25
2023-02-09T23:32:47.410Z,100058.00
2023-02-09T23:35:50.139Z,100059.38
2023-02-09T23:38:54.182Z,100055.97
2023-02-09T23:41:56.937Z,100063.44
2023-02-09T23:45:00.991Z,100072.16
2023-02-09T23:48:03.684Z,100063.59
2023-02-09T23:51:08.788Z,100068.53
2023-02-09T23:54:11.579Z,100061.75
2023-02-09T23:57:14.254Z,100072.00
